createdAt,value
2018-03-23T00:00:03.036Z,7.00
2018-03-23T00:02:31.662Z,7.00
2018-03-23T00:05:00.173Z,7.00
2018-03-23T00:07:28.569Z,7.00
2018-03-23T00:09:57.705Z,7.10
2018-03-23T00:12:26.088Z,7.00
2018-03-23T00:14:54.641Z,7.10
2018-03-23T00:17:23.265Z,7.10
2018-03-23T00:19:52.394Z,7.20
2018-03-23T00:22:20.673Z,7.20
2018-03-23T00:24:48.979Z,7.20
2018-03-23T00:27:17.801Z,7.20
2018-03-23T00:29:46.414Z,7.20
2018-03-23T00:32:14.655Z,7.20
2018-03-23T00:34:43.691Z,7.20
2018-03-23T00:37:12.215Z,7.20
2018-03-23T00:39:41.577Z,7.20
2018-03-23T00:42:09.981Z,7.10
2018-03-23T00:44:38.268Z,7.10
2018-03-23T00:47:06.674Z,7.10
2018-03-23T00:49:35.764Z,7.00
2018-03-23T00:52:04.036Z,7.00
2018-03-23T00:54:32.844Z,7.00
2018-03-23T00:57:01.189Z,7.00
2018-03-23T00:59:29.501Z,7.00
2018-03-23T01:01:57.748Z,7.00
2018-03-23T01:04:26.120Z,7.10
2018-03-23T01:06:54.657Z,7.00
2018-03-23T01:09:22.961Z,7.00
2018-03-23T01:11:51.272Z,7.00
2018-03-23T01:14:19.552Z,7.00
2018-03-23T01:16:47.820Z,7.00
2018-03-23T01:19:16.121Z,7.00
2018-03-23T01:21:44.376Z,6.90
2018-03-23T01:24:12.667Z,7.00
2018-03-23T01:26:41.048Z,7.10
2018-03-23T01:29:09.408Z,7.10
2018-03-23T01:31:37.695Z,7.20
2018-03-23T01:34:05.974Z,7.20
2018-03-23T01:36:34.965Z,7.10
2018-03-23T01:39:03.143Z,7.00
2018-03-23T01:41:31.762Z,7.00
2018-03-23T01:44:00.027Z,6.90
2018-03-23T01:46:28.279Z,6.80
2018-03-23T01:48:56.793Z,6.80
2018-03-23T01:51:25.098Z,6.80
2018-03-23T01:53:53.993Z,6.70
2018-03-23T01:56:22.392Z,6.80
2018-03-23T01:58:50.656Z,6.90
2018-03-23T02:01:18.988Z,6.80
2018-03-23T02:03:47.264Z,6.80
2018-03-23T02:06:15.540Z,6.70
2018-03-23T02:08:43.891Z,6.70
2018-03-23T02:11:12.209Z,6.70
2018-03-23T02:13:40.651Z,6.70
2018-03-23T02:16:08.955Z,6.70
2018-03-23T02:18:37.217Z,6.80
2018-03-23T02:21:05.508Z,6.70
2018-03-23T02:23:33.762Z,6.80
2018-03-23T02:26:02.006Z,6.90
2018-03-23T02:28:30.342Z,6.90
2018-03-23T02:30:58.671Z,7.00
2018-03-23T02:33:26.949Z,7.10
2018-03-23T02:35:55.177Z,7.10
2018-03-23T02:38:23.433Z,7.10
2018-03-23T02:40:51.851Z,7.20
2018-03-23T02:43:20.863Z,7.20
2018-03-23T02:45:49.117Z,7.20
2018-03-23T02:48:18.152Z,7.10
2018-03-23T02:50:46.392Z,7.10
2018-03-23T02:53:14.672Z,7.00
2018-03-23T02:55:42.945Z,7.00
2018-03-23T02:58:11.190Z,7.00
2018-03-23T03:00:39.605Z,7.00
2018-03-23T03:03:08.830Z,7.00
2018-03-23T03:05:37.036Z,7.00
2018-03-23T03:08:05.426Z,7.00
2018-03-23T03:10:33.674Z,7.10
2018-03-23T03:13:01.900Z,7.00
2018-03-23T03:15:30.991Z,7.00
2018-03-23T03:18:00.328Z,7.00
2018-03-23T03:20:29.555Z,6.90
2018-03-23T03:22:57.813Z,6.90
2018-03-23T03:25:26.092Z,6.90
2018-03-23T03:27:54.470Z,6.90
2018-03-23T03:30:22.693Z,6.90
2018-03-23T03:32:51.863Z,7.00
2018-03-23T03:35:20.206Z,6.90
2018-03-23T03:37:48.513Z,7.00
2018-03-23T03:40:16.993Z,7.10
2018-03-23T03:42:45.532Z,7.00
2018-03-23T03:45:13.890Z,7.00
2018-03-23T03:47:42.951Z,7.00
2018-03-23T03:50:11.226Z,7.00
2018-03-23T03:52:39.496Z,7.10
2018-03-23T03:55:07.780Z,7.00
2018-03-23T03:57:36.019Z,7.00
2018-03-23T04:00:05.032Z,7.00
2018-03-23T04:02:33.560Z,7.00
2018-03-23T04:05:01.817Z,7.00
2018-03-23T04:07:30.108Z,7.10
2018-03-23T04:09:59.571Z,7.10
2018-03-23T04:12:27.968Z,7.10
2018-03-23T04:14:56.231Z,7.10
2018-03-23T04:17:24.515Z,7.00
2018-03-23T04:19:52.834Z,7.00
2018-03-23T04:22:21.116Z,7.00
2018-03-23T04:24:49.456Z,7.00
2018-03-23T04:27:17.821Z,7.10
2018-03-23T04:29:46.078Z,7.00
2018-03-23T04:32:14.456Z,6.90
2018-03-23T04:34:43.614Z,7.00
2018-03-23T04:37:11.843Z,7.00
2018-03-23T04:39:40.196Z,7.00
2018-03-23T04:42:08.517Z,7.10
2018-03-23T04:44:36.738Z,7.20
2018-03-23T04:47:05.778Z,7.20
2018-03-23T04:49:34.114Z,7.20
2018-03-23T04:52:03.251Z,7.20
2018-03-23T04:54:31.521Z,7.20
2018-03-23T04:56:59.815Z,7.20
2018-03-23T04:59:28.920Z,7.10
2018-03-23T05:01:57.191Z,7.10
2018-03-23T05:04:25.724Z,7.10
2018-03-23T05:06:54.794Z,7.00
2018-03-23T05:09:23.043Z,7.00
2018-03-23T05:11:51.312Z,7.10
2018-03-23T05:14:19.592Z,7.20
2018-03-23T05:16:47.922Z,7.10
2018-03-23T05:19:17.015Z,7.20
2018-03-23T05:21:45.243Z,7.20
2018-03-23T05:24:13.512Z,7.20
2018-03-23T05:26:41.829Z,7.10
2018-03-23T05:29:10.058Z,7.10
2018-03-23T05:31:38.705Z,7.20
2018-03-23T05:34:07.084Z,7.20
2018-03-23T05:36:36.304Z,7.10
2018-03-23T05:39:05.417Z,7.10
2018-03-23T05:41:33.708Z,7.00
2018-03-23T05:44:01.973Z,7.00
2018-03-23T05:46:30.252Z,7.10
2018-03-23T05:48:58.535Z,7.20
2018-03-23T05:51:26.805Z,7.20
2018-03-23T05:53:55.076Z,7.20
2018-03-23T05:56:23.419Z,7.20
2018-03-23T05:58:51.651Z,7.20
2018-03-23T06:01:20.024Z,7.20
2018-03-23T06:03:48.394Z,7.10
2018-03-23T06:06:16.657Z,7.20
2018-03-23T06:08:45.018Z,7.10
2018-03-23T06:11:13.331Z,7.00
2018-03-23T06:13:41.815Z,7.10
2018-03-23T06:16:10.118Z,7.10
2018-03-23T06:18:38.497Z,7.10
2018-03-23T06:21:06.737Z,7.10
2018-03-23T06:23:35.023Z,7.10
2018-03-23T06:26:03.333Z,7.10
2018-03-23T06:28:31.692Z,7.10
2018-03-23T06:30:59.936Z,7.10
2018-03-23T06:33:28.374Z,7.10
2018-03-23T06:35:56.559Z,7.00
2018-03-23T06:38:25.601Z,7.00
2018-03-23T06:40:53.940Z,6.90
2018-03-23T06:43:23.126Z,6.90
2018-03-23T06:45:52.332Z,6.90
2018-03-23T06:48:20.657Z,6.90
2018-03-23T06:50:48.890Z,7.00
2018-03-23T06:53:17.929Z,7.00
2018-03-23T06:55:46.191Z,7.00
2018-03-23T06:58:14.432Z,6.80
2018-03-23T07:00:42.945Z,6.80
2018-03-23T07:03:11.207Z,6.80
2018-03-23T07:05:39.473Z,6.80
2018-03-23T07:08:08.832Z,6.90
2018-03-23T07:10:37.095Z,6.90
2018-03-23T07:13:05.508Z,6.90
2018-03-23T07:15:34.583Z,6.70
2018-03-23T07:18:02.923Z,6.70
2018-03-23T07:20:31.208Z,6.70
2018-03-23T07:22:59.483Z,6.70
2018-03-23T07:25:27.780Z,6.80
2018-03-23T07:27:56.023Z,6.70
2018-03-23T07:30:24.343Z,6.70
2018-03-23T07:32:52.580Z,6.70
2018-03-23T07:35:21.575Z,6.80
2018-03-23T07:37:49.868Z,6.80
2018-03-23T07:40:18.153Z,6.80
2018-03-23T07:42:46.365Z,6.80
2018-03-23T07:45:14.620Z,6.80
2018-03-23T07:47:43.290Z,6.80
2018-03-23T07:50:11.567Z,6.90
2018-03-23T07:52:39.916Z,6.80
2018-03-23T07:55:08.909Z,6.90
2018-03-23T07:57:37.272Z,6.80
2018-03-23T08:00:06.308Z,7.10
2018-03-23T08:02:34.530Z,7.10
2018-03-23T08:05:03.547Z,7.30
2018-03-23T08:07:31.823Z,7.30
2018-03-23T08:10:00.866Z,7.40
2018-03-23T08:12:29.350Z,7.40
2018-03-23T08:14:57.696Z,7.40
2018-03-23T08:17:25.937Z,7.50
2018-03-23T08:19:54.190Z,7.60
2018-03-23T08:22:22.431Z,7.70
2018-03-23T08:24:51.029Z,7.70
2018-03-23T08:27:19.386Z,7.70
2018-03-23T08:29:47.811Z,7.60
2018-03-23T08:32:16.340Z,7.70
2018-03-23T08:34:45.476Z,7.80
2018-03-23T08:37:13.766Z,7.80
2018-03-23T08:39:42.075Z,7.90
2018-03-23T08:42:11.154Z,8.20
2018-03-23T08:44:39.507Z,8.20
2018-03-23T08:47:08.039Z,8.30
2018-03-23T08:49:37.043Z,8.60
2018-03-23T08:52:05.329Z,8.60
2018-03-23T08:54:33.597Z,8.50
2018-03-23T08:57:01.864Z,8.40
2018-03-23T08:59:30.937Z,8.20
2018-03-23T09:01:59.257Z,8.20
2018-03-23T09:04:28.532Z,8.30
2018-03-23T09:06:56.892Z,8.20
2018-03-23T09:09:25.189Z,8.10
2018-03-23T09:11:54.807Z,8.00
2018-03-23T09:14:23.807Z,7.90
2018-03-23T09:16:52.080Z,8.00
2018-03-23T09:19:21.093Z,7.90
2018-03-23T09:21:49.374Z,7.90
2018-03-23T09:24:17.720Z,8.10
2018-03-23T09:26:46.002Z,8.20
2018-03-23T09:29:14.263Z,8.20
2018-03-23T09:31:43.251Z,8.30
2018-03-23T09:34:12.429Z,8.30
2018-03-23T09:36:41.341Z,8.30
2018-03-23T09:39:09.679Z,8.60
2018-03-23T09:41:38.003Z,8.80
2018-03-23T09:44:07.094Z,9.00
2018-03-23T09:46:35.363Z,9.00
2018-03-23T09:49:03.588Z,8.90
2018-03-23T09:51:31.837Z,9.00
2018-03-23T09:54:00.829Z,9.00
2018-03-23T09:56:29.150Z,9.00
2018-03-23T09:58:57.412Z,9.20
2018-03-23T10:01:25.659Z,9.20
2018-03-23T10:03:54.113Z,9.30
2018-03-23T10:06:22.528Z,9.40
2018-03-23T10:08:50.932Z,9.50
2018-03-23T10:11:19.201Z,9.30
2018-03-23T10:13:47.503Z,9.20
2018-03-23T10:16:16.016Z,9.20
2018-03-23T10:18:44.283Z,9.00
2018-03-23T10:21:12.576Z,8.90
2018-03-23T10:23:40.801Z,8.90
2018-03-23T10:26:09.038Z,9.10
2018-03-23T10:28:37.343Z,9.30
2018-03-23T10:31:06.287Z,9.70
2018-03-23T10:33:35.356Z,9.80
2018-03-23T10:36:03.891Z,9.80
2018-03-23T10:38:32.389Z,9.80
2018-03-23T10:41:01.460Z,10.40
2018-03-23T10:43:30.815Z,10.30
2018-03-23T10:45:59.253Z,10.30
2018-03-23T10:48:27.751Z,10.20
2018-03-23T10:50:56.872Z,10.80
2018-03-23T10:53:25.220Z,10.80
2018-03-23T10:55:53.419Z,11.00
2018-03-23T10:58:21.890Z,10.80
2018-03-23T11:00:55.914Z,10.70
2018-03-23T11:03:24.376Z,10.70
2018-03-23T11:05:52.783Z,10.60
2018-03-23T11:08:21.133Z,10.50
2018-03-23T11:10:49.622Z,10.50
2018-03-23T11:13:17.888Z,10.20
2018-03-23T11:15:46.491Z,10.00
2018-03-23T11:18:15.061Z,9.90
2018-03-23T11:20:43.308Z,9.90
2018-03-23T11:23:12.497Z,10.30
2018-03-23T11:25:41.044Z,10.30
2018-03-23T11:28:10.339Z,10.40
2018-03-23T11:30:38.689Z,10.40
2018-03-23T11:33:06.991Z,10.40
2018-03-23T11:35:36.279Z,10.50
2018-03-23T11:38:04.569Z,10.10
2018-03-23T11:40:32.951Z,10.00
2018-03-23T11:43:01.409Z,10.20
2018-03-23T11:45:29.687Z,9.90
2018-03-23T11:47:57.961Z,9.70
2018-03-23T11:50:26.976Z,9.40
2018-03-23T11:52:55.247Z,9.60
2018-03-23T11:55:23.639Z,9.70
2018-03-23T11:57:52.751Z,9.60
2018-03-23T12:00:20.976Z,9.60
2018-03-23T12:02:49.350Z,9.70
2018-03-23T12:05:17.724Z,9.60
2018-03-23T12:07:46.207Z,9.80
2018-03-23T12:10:14.557Z,9.80
2018-03-23T12:12:42.796Z,9.70
2018-03-23T12:15:11.185Z,9.80
2018-03-23T12:17:39.743Z,10.00
2018-03-23T12:20:08.011Z,10.20
2018-03-23T12:22:36.309Z,10.30
2018-03-23T12:25:04.598Z,10.40
2018-03-23T12:27:32.991Z,10.70
2018-03-23T12:30:01.963Z,10.90
2018-03-23T12:32:30.442Z,10.90
2018-03-23T12:34:58.812Z,11.00
2018-03-23T12:37:27.994Z,10.30
2018-03-23T12:39:56.335Z,10.30
2018-03-23T12:42:25.349Z,9.90
2018-03-23T12:44:54.488Z,9.90
2018-03-23T12:47:22.762Z,9.80
2018-03-23T12:49:50.995Z,9.80
2018-03-23T12:52:20.197Z,10.00
2018-03-23T12:54:48.553Z,10.00
2018-03-23T12:57:16.912Z,9.90
2018-03-23T12:59:45.163Z,10.00
2018-03-23T13:02:13.472Z,9.90
2018-03-23T13:04:41.716Z,9.90
2018-03-23T13:07:10.230Z,9.90
2018-03-23T13:09:39.295Z,9.80
2018-03-23T13:12:07.650Z,9.70
2018-03-23T13:14:35.949Z,9.60
2018-03-23T13:17:04.244Z,9.70
2018-03-23T13:19:32.680Z,9.80
2018-03-23T13:22:01.705Z,9.90
2018-03-23T13:24:29.998Z,9.90
2018-03-23T13:26:58.236Z,9.90
2018-03-23T13:29:26.531Z,9.90
2018-03-23T13:31:54.781Z,9.80
2018-03-23T13:34:23.263Z,9.80
2018-03-23T13:36:52.344Z,10.00
2018-03-23T13:39:21.411Z,10.10
2018-03-23T13:41:49.669Z,10.10
2018-03-23T13:44:17.990Z,10.00
2018-03-23T13:46:46.386Z,9.90
2018-03-23T13:49:14.752Z,9.90
2018-03-23T13:51:42.982Z,9.90
2018-03-23T13:54:11.274Z,9.90
2018-03-23T13:56:39.555Z,9.80
2018-03-23T13:59:13.840Z,9.80
2018-03-23T14:01:42.150Z,10.00
2018-03-23T14:04:10.393Z,10.10
2018-03-23T14:06:38.742Z,10.20
2018-03-23T14:09:07.752Z,10.20
2018-03-23T14:11:36.092Z,10.20
2018-03-23T14:14:04.351Z,10.10
2018-03-23T14:16:33.431Z,10.00
2018-03-23T14:19:01.812Z,10.00
2018-03-23T14:21:30.241Z,9.90
2018-03-23T14:23:58.524Z,9.90
2018-03-23T14:26:26.845Z,9.90
2018-03-23T14:28:55.169Z,9.70
2018-03-23T14:31:23.434Z,9.70
2018-03-23T14:33:52.613Z,9.60
2018-03-23T14:36:20.969Z,9.60
2018-03-23T14:38:49.222Z,9.60
2018-03-23T14:41:18.278Z,9.60
2018-03-23T14:43:46.854Z,9.60
2018-03-23T14:46:15.165Z,9.60
2018-03-23T14:48:43.460Z,9.50
2018-03-23T14:51:11.892Z,9.50
2018-03-23T14:53:40.071Z,9.40
2018-03-23T14:56:08.338Z,9.50
2018-03-23T14:58:42.240Z,9.50
2018-03-23T15:01:10.456Z,9.50
2018-03-23T15:03:39.557Z,9.60
2018-03-23T15:06:08.628Z,9.60
2018-03-23T15:08:36.897Z,9.60
2018-03-23T15:11:05.137Z,9.60
2018-03-23T15:13:33.417Z,9.40
2018-03-23T15:16:01.794Z,9.40
2018-03-23T15:18:30.213Z,9.30
2018-03-23T15:20:58.484Z,9.30
2018-03-23T15:23:26.725Z,9.20
2018-03-23T15:25:54.957Z,9.10
2018-03-23T15:28:23.256Z,9.10
2018-03-23T15:30:51.492Z,9.10
2018-03-23T15:33:19.887Z,9.10
2018-03-23T15:35:48.951Z,9.20
2018-03-23T15:38:17.217Z,9.20
2018-03-23T15:40:45.469Z,9.20
2018-03-23T15:43:13.790Z,9.30
2018-03-23T15:45:42.116Z,9.30
2018-03-23T15:48:10.443Z,9.20
2018-03-23T15:50:39.328Z,9.20
2018-03-23T15:53:07.640Z,9.30
2018-03-23T15:55:35.911Z,9.30
2018-03-23T15:58:04.985Z,9.20
2018-03-23T16:00:33.244Z,9.20
2018-03-23T16:03:02.560Z,9.30
2018-03-23T16:05:30.813Z,9.30
2018-03-23T16:07:59.143Z,9.40
2018-03-23T16:10:27.505Z,9.30
2018-03-23T16:12:55.949Z,9.20
2018-03-23T16:15:24.616Z,9.10
2018-03-23T16:17:52.988Z,9.10
2018-03-23T16:20:21.297Z,9.10
2018-03-23T16:22:49.550Z,8.90
2018-03-23T16:25:18.303Z,9.00
2018-03-23T16:27:47.352Z,9.00
2018-03-23T16:30:15.600Z,8.90
2018-03-23T16:32:43.867Z,8.90
2018-03-23T16:35:12.247Z,8.90
2018-03-23T16:37:41.321Z,8.80
2018-03-23T16:40:10.344Z,8.80
2018-03-23T16:42:44.649Z,8.80
2018-03-23T16:45:18.751Z,8.80
2018-03-23T16:47:52.896Z,8.80
2018-03-23T16:50:27.166Z,8.80
2018-03-23T16:53:01.415Z,8.70
2018-03-23T16:55:35.535Z,8.60
2018-03-23T16:58:09.968Z,8.60
2018-03-23T17:00:45.172Z,8.60
2018-03-23T17:03:19.627Z,8.60
2018-03-23T17:05:54.057Z,8.60
2018-03-23T17:08:28.411Z,8.60
2018-03-23T17:11:03.587Z,8.70
2018-03-23T17:13:37.880Z,8.60
2018-03-23T17:16:12.298Z,8.60
2018-03-23T17:18:47.035Z,8.60
2018-03-23T17:21:22.263Z,8.60
2018-03-23T17:23:56.647Z,8.60
2018-03-23T17:26:31.424Z,8.60
2018-03-23T17:29:05.903Z,8.50
2018-03-23T17:31:41.137Z,8.50
2018-03-23T17:34:15.793Z,8.50
2018-03-23T17:36:50.328Z,8.50
2018-03-23T17:39:25.106Z,8.60
2018-03-23T17:41:59.290Z,8.60
2018-03-23T17:44:33.584Z,8.70
2018-03-23T17:47:07.946Z,8.60
2018-03-23T17:49:42.665Z,8.60
2018-03-23T17:52:17.113Z,8.70
2018-03-23T17:54:51.671Z,8.60
2018-03-23T17:57:26.168Z,8.70
2018-03-23T18:00:00.324Z,8.70
2018-03-23T18:02:34.581Z,8.50
2018-03-23T18:05:09.005Z,8.50
2018-03-23T18:07:44.765Z,8.50
2018-03-23T18:10:19.754Z,8.40
2018-03-23T18:12:54.148Z,8.30
2018-03-23T18:15:29.940Z,8.30
2018-03-23T18:18:04.964Z,8.30
2018-03-23T18:20:39.506Z,8.30
2018-03-23T18:23:13.718Z,8.30
2018-03-23T18:25:48.580Z,8.40
2018-03-23T18:28:25.016Z,8.40
2018-03-23T18:30:59.834Z,8.20
2018-03-23T18:33:34.523Z,8.10
2018-03-23T18:36:09.106Z,8.20
2018-03-23T18:38:43.681Z,8.20
2018-03-23T18:41:18.566Z,8.20
2018-03-23T18:43:53.014Z,8.20
2018-03-23T18:46:27.767Z,8.20
2018-03-23T18:49:03.465Z,8.30
2018-03-23T18:51:38.191Z,8.20
2018-03-23T18:54:12.529Z,8.20
2018-03-23T18:56:46.712Z,8.20
2018-03-23T18:59:21.384Z,8.20
2018-03-23T19:01:55.670Z,8.10
2018-03-23T19:04:29.978Z,8.20
2018-03-23T19:07:05.633Z,8.20
2018-03-23T19:09:39.781Z,8.20
2018-03-23T19:12:14.342Z,8.20
2018-03-23T19:14:48.830Z,8.10
2018-03-23T19:17:23.241Z,8.10
2018-03-23T19:19:58.275Z,8.10
2018-03-23T19:22:32.581Z,8.10
2018-03-23T19:25:07.275Z,8.20
2018-03-23T19:27:41.497Z,8.20
2018-03-23T19:30:16.987Z,8.20
2018-03-23T19:32:51.131Z,8.20
2018-03-23T19:35:25.370Z,8.20
2018-03-23T19:37:59.671Z,8.20
2018-03-23T19:40:33.800Z,8.20
2018-03-23T19:43:08.275Z,8.30
2018-03-23T19:45:43.593Z,8.30
2018-03-23T19:48:18.699Z,8.20
2018-03-23T19:50:53.776Z,8.20
2018-03-23T19:53:28.269Z,8.20
2018-03-23T19:56:02.811Z,8.10
2018-03-23T20:01:18.481Z,8.20
2018-03-23T20:03:53.066Z,8.10
2018-03-23T20:06:27.406Z,8.20
2018-03-23T20:09:02.582Z,8.20
2018-03-23T20:11:37.218Z,8.10
2018-03-23T20:14:11.829Z,8.10
2018-03-23T20:16:46.212Z,8.10
2018-03-23T20:19:20.505Z,8.10
2018-03-23T20:21:55.035Z,8.10
2018-03-23T20:24:29.556Z,8.10
2018-03-23T20:27:09.632Z,8.10
2018-03-23T20:29:44.414Z,8.20
2018-03-23T20:32:25.948Z,8.20
2018-03-23T20:35:00.443Z,8.00
2018-03-23T20:37:36.030Z,8.00
2018-03-23T20:40:10.486Z,8.00
2018-03-23T20:42:45.184Z,7.90
2018-03-23T20:45:19.768Z,8.00
2018-03-23T20:47:54.026Z,8.00
2018-03-23T20:50:28.190Z,8.10
2018-03-23T20:53:02.659Z,8.00
2018-03-23T20:55:36.916Z,8.00
2018-03-23T20:58:11.100Z,7.90
2018-03-23T21:00:45.245Z,7.80
2018-03-23T21:03:19.373Z,7.80
2018-03-23T21:05:53.591Z,7.80
2018-03-23T21:08:27.870Z,7.60
2018-03-23T21:11:02.261Z,7.70
2018-03-23T21:13:37.293Z,7.70
2018-03-23T21:16:11.483Z,7.70
2018-03-23T21:18:45.783Z,7.80
2018-03-23T21:21:20.122Z,7.80
2018-03-23T21:23:55.257Z,7.80
2018-03-23T21:26:29.976Z,7.80
2018-03-23T21:29:04.251Z,7.90
2018-03-23T21:31:38.610Z,7.90
2018-03-23T21:34:12.893Z,8.00
2018-03-23T21:36:47.523Z,7.90
2018-03-23T21:39:22.700Z,7.90
2018-03-23T21:41:56.920Z,7.90
2018-03-23T21:44:31.169Z,7.90
2018-03-23T21:47:05.515Z,7.90
2018-03-23T21:49:39.875Z,7.90
2018-03-23T21:52:14.082Z,7.80
2018-03-23T21:54:48.455Z,7.80
2018-03-23T21:57:22.992Z,7.80
2018-03-23T21:59:57.490Z,7.80
2018-03-23T22:02:31.664Z,7.80
2018-03-23T22:05:06.026Z,7.80
2018-03-23T22:07:40.606Z,7.80
2018-03-23T22:10:15.032Z,7.90
2018-03-23T22:12:49.442Z,7.90
2018-03-23T22:15:24.091Z,7.80
2018-03-23T22:17:58.390Z,7.80
2018-03-23T22:20:32.706Z,7.80
2018-03-23T22:23:09.347Z,7.80
2018-03-23T22:25:43.543Z,7.80
2018-03-23T22:28:18.697Z,7.80
2018-03-23T22:30:53.100Z,7.70
2018-03-23T22:33:27.276Z,7.70
2018-03-23T22:36:02.102Z,7.70
2018-03-23T22:38:36.391Z,7.80
2018-03-23T22:41:10.814Z,7.80
2018-03-23T22:43:46.006Z,7.80
2018-03-23T22:46:20.486Z,7.80
2018-03-23T22:48:54.797Z,7.80
2018-03-23T22:51:29.943Z,7.70
2018-03-23T22:54:05.224Z,7.70
2018-03-23T22:56:39.509Z,7.70
2018-03-23T22:59:13.742Z,7.70
2018-03-23T23:01:48.076Z,7.60
2018-03-23T23:04:22.390Z,7.60
2018-03-23T23:06:56.859Z,7.70
2018-03-23T23:09:32.078Z,7.70
2018-03-23T23:12:06.648Z,7.70
2018-03-23T23:14:40.912Z,7.60
2018-03-23T23:17:16.574Z,7.60
2018-03-23T23:19:50.996Z,7.60
2018-03-23T23:22:25.648Z,7.50
2018-03-23T23:25:00.006Z,7.40
2018-03-23T23:27:35.092Z,7.30
2018-03-23T23:30:10.031Z,7.20
2018-03-23T23:32:44.352Z,7.20
2018-03-23T23:35:18.789Z,7.00
2018-03-23T23:37:53.295Z,6.90
2018-03-23T23:40:27.737Z,6.80
2018-03-23T23:43:03.273Z,6.80
2018-03-23T23:45:37.587Z,6.70
2018-03-23T23:48:12.586Z,6.70
2018-03-23T23:50:47.654Z,6.70
2018-03-23T23:53:22.322Z,6.70
2018-03-23T23:55:56.768Z,6.60
2018-03-23T23:58:31.185Z,6.60
